Terminal Aerodrome Forecast
Issued by NWS Charleston, WV

Current Version | Previous Version | Graphics & Text | Print | Product List | Glossary On
Versions: 1 2 3 4 5 6 7 8 9 10 11 12 13 14 15 16 17 18 19 20 21
000
FTUS41 KRLX 130900 AAA
TAFBKW
TAF AMD
KBKW 130908Z 1309/1406 21006KT P6SM BKN100
     FM131400 23007KT P6SM BKN060
     FM132000 23008G13KT P6SM VCTS BKN040CB
     FM140200 22004KT P6SM BKN060=

USA.gov is the U.S. government's official web portal to all federal, state and local government web resources and services.